Hawick, United Kingdom
Current Conditions -  °F | °C
As of 4:50 PM on Thursday 27 Nov 2014 (Local Time) from EGOM Reporting Station
Light Rain Light Rain  
Wind Chill:   Ceiling: 400
Heat Index:   Visibility: 3mi
Dew Point:   Wind: 6mph
Humidity: 100%   Direction: 80°E
Pressure: 29.53"   Gusts: NA
Location:  55.42°N, 2.79°W
Report Text: EGOM 271650Z 08005KT 5000 -RA BKN004 BKN024 07/07 Q1000 YLO2
Loading
Personal Weather Stations






























Interactive Weather Map New forecast layout! Learn more

10-Day Weather Forecast

Advertisements
Track Severe Weather on mobile